createdAt,value
2023-04-09T00:01:25.365Z,11.85
2023-04-09T00:03:52.394Z,11.37
2023-04-09T00:06:25.056Z,11.02
2023-04-09T00:08:55.712Z,10.59
2023-04-09T00:11:23.640Z,10.51
2023-04-09T00:14:08.723Z,10.42
2023-04-09T00:17:05.379Z,10.47
2023-04-09T00:19:38.213Z,10.53
2023-04-09T00:22:18.095Z,10.69
2023-04-09T00:24:47.718Z,10.88
2023-04-09T00:27:19.783Z,10.73
2023-04-09T00:29:56.001Z,10.40
2023-04-09T00:32:41.589Z,10.30
2023-04-09T00:35:22.421Z,10.35
2023-04-09T00:37:49.609Z,10.31
2023-04-09T00:40:21.707Z,10.30
2023-04-09T00:42:55.810Z,10.30
2023-04-09T00:45:22.700Z,10.63
2023-04-09T00:48:08.838Z,10.46
2023-04-09T00:50:48.737Z,10.66
2023-04-09T00:53:19.021Z,10.75
2023-04-09T00:55:48.903Z,10.77
2023-04-09T00:58:16.108Z,10.83
2023-04-09T01:00:46.604Z,10.51
2023-04-09T01:03:16.631Z,10.35
2023-04-09T01:06:02.518Z,10.14
2023-04-09T01:08:58.674Z,10.17
2023-04-09T01:11:49.937Z,10.23
2023-04-09T01:14:31.987Z,9.98
2023-04-09T01:17:17.188Z,9.81
2023-04-09T01:19:58.510Z,9.82
2023-04-09T01:22:35.955Z,9.95
2023-04-09T01:25:25.709Z,10.27
2023-04-09T01:28:11.275Z,10.12
2023-04-09T01:30:42.264Z,10.07
2023-04-09T01:33:16.990Z,10.01
2023-04-09T01:35:46.258Z,9.98
2023-04-09T01:38:21.696Z,9.89
2023-04-09T01:41:06.594Z,9.88
2023-04-09T01:43:46.227Z,9.86
2023-04-09T01:46:13.974Z,9.96
2023-04-09T01:48:41.285Z,10.15
2023-04-09T01:51:34.828Z,10.14
2023-04-09T01:54:13.327Z,10.04
2023-04-09T01:56:48.733Z,9.93
2023-04-09T01:59:16.213Z,9.93
2023-04-09T02:01:52.439Z,9.90
2023-04-09T02:04:31.346Z,9.78
2023-04-09T02:07:12.487Z,9.86
2023-04-09T02:09:47.718Z,9.72
2023-04-09T02:12:41.050Z,9.72
2023-04-09T02:15:08.715Z,9.74
2023-04-09T02:17:38.502Z,9.79
2023-04-09T02:20:05.907Z,9.98
2023-04-09T02:22:59.662Z,10.03
2023-04-09T02:28:07.932Z,10.55
2023-04-09T02:30:34.873Z,10.81
2023-04-09T02:33:20.181Z,10.64
2023-04-09T02:35:54.324Z,10.34
2023-04-09T02:38:24.172Z,10.12
2023-04-09T02:40:51.045Z,10.08
2023-04-09T02:43:24.261Z,10.29
2023-04-09T02:45:51.072Z,11.46
2023-04-09T02:48:33.697Z,12.46
2023-04-09T02:51:51.031Z,12.20
2023-04-09T02:55:00.815Z,11.21
2023-04-09T02:57:28.493Z,10.84
2023-04-09T02:59:55.984Z,10.75
2023-04-09T03:02:27.659Z,10.55
2023-04-09T03:07:44.747Z,10.64
2023-04-09T03:10:24.959Z,11.49
2023-04-09T03:13:04.184Z,10.88
2023-04-09T03:15:51.939Z,11.89
2023-04-09T03:18:28.857Z,11.46
2023-04-09T03:20:55.895Z,10.80
2023-04-09T03:23:22.827Z,11.95
2023-04-09T03:26:01.134Z,11.15
2023-04-09T03:28:31.509Z,10.76
2023-04-09T03:31:01.423Z,11.96
2023-04-09T03:33:28.341Z,11.97
2023-04-09T03:35:55.327Z,11.42
2023-04-09T03:38:22.905Z,11.17
2023-04-09T03:40:55.278Z,10.86
2023-04-09T03:43:58.969Z,10.87
2023-04-09T03:46:27.417Z,10.83
2023-04-09T03:48:54.571Z,10.43
2023-04-09T03:51:35.062Z,10.36
2023-04-09T03:54:16.863Z,11.19
2023-04-09T03:56:57.284Z,11.76
2023-04-09T03:59:24.726Z,11.04
2023-04-09T04:02:00.278Z,10.57
2023-04-09T04:04:30.250Z,10.54
2023-04-09T04:07:11.798Z,10.72
2023-04-09T04:09:38.898Z,10.55
2023-04-09T04:12:10.424Z,11.20
2023-04-09T04:14:42.618Z,11.03
2023-04-09T04:17:12.258Z,10.88
2023-04-09T04:19:41.911Z,10.61
2023-04-09T04:22:08.883Z,10.32
2023-04-09T04:24:54.367Z,10.15
2023-04-09T04:27:32.579Z,10.31
2023-04-09T04:30:11.780Z,10.36
2023-04-09T04:32:49.656Z,10.40
2023-04-09T04:35:34.437Z,10.31
2023-04-09T04:38:07.372Z,10.13
2023-04-09T04:40:35.823Z,10.19
2023-04-09T04:43:19.295Z,10.29
2023-04-09T04:45:59.935Z,11.30
2023-04-09T04:48:34.371Z,10.93
2023-04-09T04:51:05.922Z,10.51
2023-04-09T04:53:38.890Z,10.21
2023-04-09T04:56:21.316Z,10.06
2023-04-09T04:58:48.351Z,9.94
2023-04-09T05:01:21.998Z,9.84
2023-04-09T05:03:50.847Z,9.69
2023-04-09T05:06:23.562Z,9.72
2023-04-09T05:08:50.861Z,9.67
2023-04-09T05:11:21.505Z,9.83
2023-04-09T05:13:51.732Z,10.13
2023-04-09T05:16:20.334Z,10.09
2023-04-09T05:18:47.942Z,9.98
2023-04-09T05:21:20.713Z,10.00
2023-04-09T05:23:48.066Z,10.11
2023-04-09T05:26:17.078Z,10.18
2023-04-09T05:28:44.080Z,10.21
2023-04-09T05:31:16.002Z,10.22
2023-04-09T05:33:48.482Z,10.19
2023-04-09T05:36:22.240Z,10.11
2023-04-09T05:38:49.719Z,10.16
2023-04-09T05:41:23.828Z,10.45
2023-04-09T05:44:00.825Z,10.58
2023-04-09T05:46:45.697Z,10.90
2023-04-09T05:49:23.216Z,10.75
2023-04-09T05:51:56.402Z,10.67
2023-04-09T05:54:34.148Z,10.68
2023-04-09T05:57:17.279Z,10.61
2023-04-09T05:59:44.365Z,10.74
2023-04-09T06:02:20.430Z,10.69
2023-04-09T06:04:54.408Z,10.63
2023-04-09T06:07:22.905Z,10.65
2023-04-09T06:09:50.005Z,10.77
2023-04-09T06:12:28.357Z,10.80
2023-04-09T06:14:55.204Z,10.79
2023-04-09T06:17:22.140Z,10.87
2023-04-09T06:19:52.286Z,10.98
2023-04-09T06:22:22.162Z,10.93
2023-04-09T06:24:54.565Z,11.00
2023-04-09T06:27:24.307Z,11.20
2023-04-09T06:29:54.308Z,11.16
2023-04-09T06:32:24.469Z,11.14
2023-04-09T06:34:54.440Z,11.21
2023-04-09T06:37:24.460Z,11.50
2023-04-09T06:40:01.116Z,11.53
2023-04-09T06:42:35.405Z,11.63
2023-04-09T06:45:12.213Z,11.47
2023-04-09T06:47:39.274Z,11.61
2023-04-09T06:50:10.916Z,11.73
2023-04-09T06:52:43.819Z,11.99
2023-04-09T06:55:11.060Z,11.98
2023-04-09T06:57:56.055Z,12.12
2023-04-09T07:00:36.500Z,12.19
2023-04-09T07:03:09.563Z,12.20
2023-04-09T07:05:36.895Z,12.89
2023-04-09T07:08:04.480Z,13.39
2023-04-09T07:10:34.301Z,13.10
2023-04-09T07:13:01.341Z,12.56
2023-04-09T07:15:30.725Z,12.23
2023-04-09T07:17:59.678Z,12.56
2023-04-09T07:20:29.638Z,12.15
2023-04-09T07:22:56.612Z,12.32
2023-04-09T07:25:23.640Z,12.42
2023-04-09T07:30:54.793Z,12.59
2023-04-09T07:33:24.839Z,12.59
2023-04-09T07:35:53.256Z,12.70
2023-04-09T07:38:26.156Z,12.77
2023-04-09T07:40:55.088Z,12.65
2023-04-09T07:43:22.772Z,12.98
2023-04-09T07:45:52.803Z,13.20
2023-04-09T07:48:22.630Z,13.04
2023-04-09T07:50:53.043Z,12.90
2023-04-09T07:53:20.164Z,12.81
2023-04-09T07:55:47.166Z,12.82
2023-04-09T07:58:14.143Z,12.90
2023-04-09T08:00:41.246Z,13.26
2023-04-09T08:03:18.187Z,13.75
2023-04-09T08:05:52.259Z,13.19
2023-04-09T08:08:21.181Z,13.00
2023-04-09T08:11:04.279Z,13.53
2023-04-09T08:13:40.978Z,14.00
2023-04-09T08:16:21.764Z,13.93
2023-04-09T08:18:57.540Z,13.91
2023-04-09T08:21:36.570Z,14.21
2023-04-09T08:24:05.368Z,14.26
2023-04-09T08:26:32.305Z,14.03
2023-04-09T08:28:59.620Z,13.73
2023-04-09T08:31:43.028Z,13.61
2023-04-09T08:34:15.044Z,13.97
2023-04-09T08:37:07.707Z,14.16
2023-04-09T08:39:37.695Z,14.21
2023-04-09T08:42:19.999Z,13.92
2023-04-09T08:44:56.622Z,14.23
2023-04-09T08:47:24.369Z,14.29
2023-04-09T08:49:54.426Z,14.37
2023-04-09T08:52:54.542Z,14.43
2023-04-09T08:55:34.040Z,14.58
2023-04-09T08:58:34.469Z,14.25
2023-04-09T09:01:02.105Z,14.63
2023-04-09T09:03:29.049Z,14.51
2023-04-09T09:05:56.019Z,14.48
2023-04-09T09:08:46.656Z,14.60
2023-04-09T09:11:35.754Z,14.57
2023-04-09T09:14:34.835Z,14.52
2023-04-09T09:17:12.783Z,14.52
2023-04-09T09:19:54.045Z,14.44
2023-04-09T09:22:21.213Z,14.37
2023-04-09T09:25:03.506Z,14.53
2023-04-09T09:27:43.918Z,14.49
2023-04-09T09:30:22.190Z,14.50
2023-04-09T09:32:52.977Z,14.30
2023-04-09T09:35:39.897Z,14.50
2023-04-09T09:38:19.627Z,14.54
2023-04-09T09:40:50.530Z,14.62
2023-04-09T09:43:17.690Z,14.72
2023-04-09T09:45:50.114Z,14.82
2023-04-09T09:48:25.292Z,14.54
2023-04-09T09:51:19.848Z,14.63
2023-04-09T09:53:57.808Z,14.63
2023-04-09T09:56:32.878Z,14.86
2023-04-09T09:59:04.244Z,14.91
2023-04-09T10:01:40.190Z,14.94
2023-04-09T10:04:16.273Z,15.10
2023-04-09T10:06:57.081Z,15.09
2023-04-09T10:09:31.678Z,15.19
2023-04-09T10:12:04.498Z,15.15
2023-04-09T10:14:41.874Z,15.10
2023-04-09T10:17:25.058Z,14.95
2023-04-09T10:20:16.286Z,15.25
2023-04-09T10:22:45.398Z,15.09
2023-04-09T10:25:21.142Z,15.25
2023-04-09T10:28:00.601Z,15.13
2023-04-09T10:30:35.219Z,15.35
2023-04-09T10:33:26.751Z,15.52
2023-04-09T10:35:56.954Z,15.54
2023-04-09T10:38:47.448Z,15.39
2023-04-09T10:41:25.598Z,15.55
2023-04-09T10:44:05.529Z,15.51
2023-04-09T10:46:52.518Z,15.69
2023-04-09T10:49:27.359Z,15.76
2023-04-09T10:52:18.344Z,15.87
2023-04-09T10:54:52.666Z,15.71
2023-04-09T10:57:21.778Z,15.65
2023-04-09T10:59:53.643Z,15.65
2023-04-09T11:02:39.658Z,15.74
2023-04-09T11:08:29.459Z,15.62
2023-04-09T11:10:58.780Z,15.67
2023-04-09T11:13:25.874Z,15.66
2023-04-09T11:15:57.210Z,15.73
2023-04-09T11:18:27.113Z,15.78
2023-04-09T11:21:08.711Z,15.79
2023-04-09T11:23:35.866Z,15.96
2023-04-09T11:26:03.136Z,16.26
2023-04-09T11:28:41.355Z,16.48
2023-04-09T11:31:08.400Z,16.74
2023-04-09T11:33:35.689Z,16.82
2023-04-09T11:36:18.823Z,16.95
2023-04-09T11:38:49.773Z,16.99
2023-04-09T11:41:16.907Z,17.02
2023-04-09T11:43:44.047Z,16.96
2023-04-09T11:46:11.512Z,17.06
2023-04-09T11:48:38.677Z,17.00
2023-04-09T11:51:07.637Z,17.29
2023-04-09T11:53:38.099Z,17.41
2023-04-09T11:56:07.110Z,17.30
2023-04-09T11:58:36.998Z,17.13
2023-04-09T12:01:04.084Z,17.11
2023-04-09T12:03:33.679Z,17.31
2023-04-09T12:06:09.508Z,17.69
2023-04-09T12:08:39.548Z,17.77
2023-04-09T12:11:19.466Z,17.52
2023-04-09T12:13:59.064Z,17.18
2023-04-09T12:16:26.142Z,16.86
2023-04-09T12:18:56.084Z,16.67
2023-04-09T12:21:27.565Z,16.28
2023-04-09T12:24:06.222Z,16.19
2023-04-09T12:26:33.160Z,16.12
2023-04-09T12:29:16.921Z,16.37
2023-04-09T12:31:53.037Z,17.09
2023-04-09T12:34:34.582Z,17.06
2023-04-09T12:37:06.400Z,16.84
2023-04-09T12:39:37.645Z,16.47
2023-04-09T12:42:09.732Z,16.25
2023-04-09T12:44:49.629Z,16.14
2023-04-09T12:47:19.522Z,16.04
2023-04-09T12:49:47.119Z,16.04
2023-04-09T12:52:14.208Z,15.97
2023-04-09T12:54:41.217Z,15.87
2023-04-09T12:57:08.267Z,15.83
2023-04-09T12:59:37.707Z,16.18
2023-04-09T13:02:04.790Z,16.03
2023-04-09T13:04:32.217Z,15.94
2023-04-09T13:07:10.931Z,16.10
2023-04-09T13:09:42.196Z,15.98
2023-04-09T13:12:09.172Z,15.90
2023-04-09T13:14:36.815Z,16.12
2023-04-09T13:17:05.146Z,16.48
2023-04-09T13:19:43.752Z,16.46
2023-04-09T13:22:33.699Z,16.21
2023-04-09T13:25:00.977Z,16.19
2023-04-09T13:27:27.863Z,16.24
2023-04-09T13:29:54.785Z,16.37
2023-04-09T13:32:23.558Z,16.20
2023-04-09T13:35:18.589Z,15.90
2023-04-09T13:37:45.739Z,15.69
2023-04-09T13:40:13.341Z,15.76
2023-04-09T13:42:43.786Z,15.73
2023-04-09T13:45:10.944Z,15.72
2023-04-09T13:47:41.467Z,15.79
2023-04-09T13:50:13.331Z,15.94
2023-04-09T13:52:40.315Z,16.16
2023-04-09T13:55:08.038Z,16.00
2023-04-09T13:57:35.043Z,15.76
2023-04-09T14:00:04.785Z,15.65
2023-04-09T14:02:32.627Z,15.65
2023-04-09T14:05:04.172Z,15.79
2023-04-09T14:07:31.251Z,15.79
2023-04-09T14:10:09.070Z,15.76
2023-04-09T14:12:36.287Z,15.67
2023-04-09T14:15:11.877Z,15.65
2023-04-09T14:17:49.835Z,15.57
2023-04-09T14:20:16.886Z,15.84
2023-04-09T14:22:49.360Z,15.87
2023-04-09T14:25:17.136Z,15.80
2023-04-09T14:27:43.972Z,15.95
2023-04-09T14:30:13.273Z,16.01
2023-04-09T14:32:42.563Z,15.95
2023-04-09T14:35:09.904Z,15.90
2023-04-09T14:37:41.862Z,15.76
2023-04-09T14:40:12.139Z,15.71
2023-04-09T14:42:40.050Z,15.62
2023-04-09T14:45:14.344Z,15.56
2023-04-09T14:47:42.397Z,15.55
2023-04-09T14:50:10.589Z,15.51
2023-04-09T14:52:37.516Z,15.44
2023-04-09T14:55:04.865Z,15.66
2023-04-09T14:57:31.885Z,15.85
2023-04-09T15:00:05.204Z,15.73
2023-04-09T15:02:39.705Z,15.65
2023-04-09T15:05:10.412Z,15.63
2023-04-09T15:07:37.347Z,15.55
2023-04-09T15:10:04.339Z,15.47
2023-04-09T15:12:38.973Z,15.52
2023-04-09T15:15:07.633Z,15.52
2023-04-09T15:17:34.689Z,15.60
2023-04-09T15:20:01.690Z,15.63
2023-04-09T15:22:28.656Z,15.66
2023-04-09T15:24:57.870Z,15.61
2023-04-09T15:27:26.535Z,15.76
2023-04-09T15:29:58.435Z,15.75
2023-04-09T15:32:34.060Z,15.63
2023-04-09T15:35:35.149Z,15.55
2023-04-09T15:38:50.998Z,15.49
2023-04-09T15:41:18.362Z,15.47
2023-04-09T15:43:58.998Z,15.41
2023-04-09T15:46:34.651Z,15.51
2023-04-09T15:49:12.058Z,15.53
2023-04-09T15:51:53.924Z,15.36
2023-04-09T15:54:20.952Z,15.36
2023-04-09T15:56:47.976Z,15.28
2023-04-09T15:59:14.848Z,15.27
2023-04-09T16:01:44.904Z,15.33
2023-04-09T16:04:11.839Z,15.25
2023-04-09T16:06:39.661Z,15.27
2023-04-09T16:09:06.632Z,15.19
2023-04-09T16:11:39.633Z,15.26
2023-04-09T16:14:09.618Z,15.27
2023-04-09T16:16:37.153Z,15.29
2023-04-09T16:19:04.141Z,15.28
2023-04-09T16:21:31.583Z,15.32
2023-04-09T16:23:58.470Z,15.30
2023-04-09T16:26:25.327Z,15.29
2023-04-09T16:28:53.642Z,15.15
2023-04-09T16:31:20.740Z,15.30
2023-04-09T16:33:49.032Z,15.39
2023-04-09T16:36:16.043Z,15.34
2023-04-09T16:38:42.944Z,15.12
2023-04-09T16:41:15.387Z,15.22
2023-04-09T16:43:45.370Z,15.15
2023-04-09T16:46:12.446Z,15.32
2023-04-09T16:48:49.854Z,15.37
2023-04-09T16:51:17.325Z,15.25
2023-04-09T16:53:44.247Z,15.28
2023-04-09T16:56:11.130Z,15.29
2023-04-09T16:58:39.312Z,15.26
2023-04-09T17:04:26.758Z,15.27
2023-04-09T17:09:55.099Z,15.38
2023-04-09T17:12:25.848Z,15.32
2023-04-09T17:15:08.171Z,15.30
2023-04-09T17:17:42.988Z,15.15
2023-04-09T17:20:10.767Z,15.13
2023-04-09T17:22:40.434Z,15.33
2023-04-09T17:25:10.989Z,15.33
2023-04-09T17:27:53.091Z,15.29
2023-04-09T17:30:23.067Z,15.24
2023-04-09T17:32:53.368Z,15.17
2023-04-09T17:35:20.816Z,15.02
2023-04-09T17:37:51.198Z,15.22
2023-04-09T17:40:47.448Z,15.25
2023-04-09T17:43:14.758Z,15.21
2023-04-09T17:45:57.597Z,15.13
2023-04-09T17:48:27.923Z,15.13
2023-04-09T17:50:55.970Z,15.10
2023-04-09T17:53:26.153Z,15.16
2023-04-09T17:56:03.385Z,15.11
2023-04-09T17:58:30.493Z,15.25
2023-04-09T18:01:01.967Z,15.21
2023-04-09T18:03:31.679Z,15.18
2023-04-09T18:06:01.919Z,15.10
2023-04-09T18:08:32.298Z,15.17
2023-04-09T18:11:13.972Z,15.05
2023-04-09T18:13:43.436Z,15.05
2023-04-09T18:16:12.748Z,15.07
2023-04-09T18:18:45.305Z,14.91
2023-04-09T18:21:15.632Z,14.86
2023-04-09T18:23:43.378Z,14.84
2023-04-09T18:26:14.795Z,15.01
2023-04-09T18:28:42.327Z,15.13
2023-04-09T18:31:21.314Z,15.26
2023-04-09T18:33:49.980Z,15.09
2023-04-09T18:36:39.468Z,15.06
2023-04-09T18:39:15.269Z,15.19
2023-04-09T18:41:50.515Z,15.04
2023-04-09T18:44:26.300Z,15.09
2023-04-09T18:46:59.495Z,15.01
2023-04-09T18:49:31.023Z,14.94
2023-04-09T18:51:58.252Z,15.02
2023-04-09T18:54:26.171Z,15.00
2023-04-09T18:56:53.170Z,15.21
2023-04-09T18:59:20.147Z,15.08
2023-04-09T19:01:56.085Z,15.14
2023-04-09T19:04:33.785Z,15.16
2023-04-09T19:07:04.766Z,15.21
2023-04-09T19:09:35.194Z,15.20
2023-04-09T19:12:02.290Z,14.99
2023-04-09T19:14:32.371Z,14.97
2023-04-09T19:17:03.397Z,14.69
2023-04-09T19:19:30.379Z,14.67
2023-04-09T19:22:03.838Z,14.80
2023-04-09T19:24:34.846Z,14.86
2023-04-09T19:27:12.909Z,14.92
2023-04-09T19:29:42.057Z,14.75
2023-04-09T19:32:23.128Z,14.57
2023-04-09T19:35:01.957Z,14.96
2023-04-09T19:37:31.251Z,14.79
2023-04-09T19:40:23.539Z,14.73
2023-04-09T19:42:56.628Z,15.10
2023-04-09T19:45:27.360Z,15.04
2023-04-09T19:50:43.091Z,14.93
2023-04-09T19:53:11.023Z,15.00
2023-04-09T19:55:47.002Z,14.84
2023-04-09T19:58:13.968Z,14.70
2023-04-09T20:00:47.086Z,14.97
2023-04-09T20:03:23.451Z,15.09
2023-04-09T20:05:50.820Z,14.86
2023-04-09T20:08:20.774Z,14.80
2023-04-09T20:10:49.307Z,14.93
2023-04-09T20:13:16.204Z,14.98
2023-04-09T20:15:48.281Z,14.90
2023-04-09T20:18:19.386Z,14.81
2023-04-09T20:20:46.455Z,14.93
2023-04-09T20:26:13.404Z,14.54
2023-04-09T20:29:01.054Z,14.93
2023-04-09T20:31:39.574Z,14.81
2023-04-09T20:34:15.834Z,14.59
2023-04-09T20:36:53.903Z,14.89
2023-04-09T20:39:40.314Z,14.93
2023-04-09T20:42:08.339Z,15.03
2023-04-09T20:44:45.049Z,14.83
2023-04-09T20:47:12.329Z,14.51
2023-04-09T20:49:40.407Z,14.61
2023-04-09T20:52:19.372Z,14.83
2023-04-09T20:54:56.517Z,14.60
2023-04-09T20:57:35.279Z,14.39
2023-04-09T21:00:11.570Z,14.55
2023-04-09T21:02:44.611Z,14.85
2023-04-09T21:05:22.419Z,14.92
2023-04-09T21:07:51.257Z,14.76
2023-04-09T21:10:21.335Z,14.62
2023-04-09T21:13:01.465Z,14.89
2023-04-09T21:15:49.841Z,14.53
2023-04-09T21:18:24.129Z,14.53
2023-04-09T21:21:00.054Z,14.74
2023-04-09T21:23:45.404Z,14.47
2023-04-09T21:26:12.920Z,14.49
2023-04-09T21:28:42.938Z,14.47
2023-04-09T21:31:14.175Z,14.31
2023-04-09T21:33:41.299Z,14.30
2023-04-09T21:36:14.352Z,14.13
2023-04-09T21:38:41.271Z,14.28
2023-04-09T21:41:11.338Z,14.09
2023-04-09T21:43:46.408Z,14.06
2023-04-09T21:46:16.506Z,13.90
2023-04-09T21:48:53.721Z,13.70
2023-04-09T21:51:20.880Z,13.61
2023-04-09T21:54:02.467Z,13.59
2023-04-09T21:56:31.670Z,13.69
2023-04-09T21:59:09.967Z,13.96
2023-04-09T22:01:36.977Z,13.71
2023-04-09T22:04:07.811Z,13.85
2023-04-09T22:06:38.497Z,13.97
2023-04-09T22:09:10.404Z,14.24
2023-04-09T22:11:46.750Z,14.10
2023-04-09T22:14:20.105Z,14.18
2023-04-09T22:16:58.472Z,14.04
2023-04-09T22:19:40.434Z,14.16
2023-04-09T22:22:22.392Z,14.03
2023-04-09T22:24:53.464Z,14.05
2023-04-09T22:27:42.866Z,14.31
2023-04-09T22:30:09.921Z,14.12
2023-04-09T22:32:38.779Z,14.64
2023-04-09T22:35:10.502Z,14.50
2023-04-09T22:37:40.053Z,14.29
2023-04-09T22:40:14.281Z,14.15
2023-04-09T22:42:46.871Z,14.03
2023-04-09T22:45:18.792Z,13.84
2023-04-09T22:47:55.522Z,13.87
2023-04-09T22:50:33.793Z,13.83
2023-04-09T22:53:03.796Z,13.99
2023-04-09T22:55:36.762Z,14.07
2023-04-09T22:58:12.499Z,14.42
2023-04-09T23:00:45.137Z,14.75
2023-04-09T23:03:12.249Z,14.74
2023-04-09T23:05:45.748Z,14.59
2023-04-09T23:11:17.930Z,14.26
2023-04-09T23:13:54.301Z,14.30
2023-04-09T23:16:21.863Z,14.35
2023-04-09T23:18:50.238Z,14.36
2023-04-09T23:21:21.647Z,14.33
2023-04-09T23:23:59.039Z,14.68
2023-04-09T23:26:39.869Z,14.39
2023-04-09T23:29:08.755Z,14.38
2023-04-09T23:31:42.889Z,14.44
2023-04-09T23:34:13.320Z,14.25
2023-04-09T23:36:43.456Z,14.28
2023-04-09T23:39:12.227Z,14.57
2023-04-09T23:42:19.245Z,14.45
2023-04-09T23:45:00.760Z,14.67
2023-04-09T23:47:58.320Z,14.54
2023-04-09T23:50:49.924Z,14.91
2023-04-09T23:53:17.199Z,14.85
2023-04-09T23:56:18.917Z,14.37
2023-04-09T23:58:51.631Z,14.27
